Beverly, MA

12:56 AM EST on January 31, 2015 (GMT -0500)
Beverly Cove | Change Station
CLOSE
Current Station
Personal Weather Station
Location: Beverly, MA
Elevation: 51 ft
Nearby Weather Stations
Active Advisory: Wind Advisory, Special Statement

Elev 51 ft 42.56 °N, 70.85 °W | Updated 1 second ago

Snow
Snow
17.0 °F
Feels Like 8 °F
N
6.0
Wind Variable Wind from NNW
Gusts 11.0 mph

Today
High -- | Low -- °F
--% Chance of Precip.
Yesterday
High -- | Low -- °F
Precip. -- in
6:58 AM 4:55 PM
Waxing Gibbous, 87% visible
Pressure 29.69 in
Visibility 2.0 miles
Clouds Overcast 3700 ft
Windchill 8 °F
Dew Point 11 °F
Humidity 78%
Rainfall 0.00 in
Snow Depth Not available.
UV 0 out of 12
Pollen .10 out of 12
Air Quality Not available.
Flu Activity Not available.
METAR KBVY 310553Z AUTO 31020G28KT 2SM -SN OVC037 M09/M14 A2970 RMK AO2 PK WND 30028/0549 SLP054 P0000 60001 T10891139 11011 21089 58010

More Conditions Fewer Conditions

Pressure 29.69 in
Visibility 2.0 miles
Clouds Overcast 3700 ft
Windchill 8 °F
Dew Point 11 °F
Humidity 78%
Rainfall 0.00 in
Snow Depth Not available.
UV 0 out of 12
Pollen .10 out of 12
Air Quality Not available.
Flu Activity Not available.
METAR KBVY 310553Z AUTO 31020G28KT 2SM -SN OVC037 M09/M14 A2970 RMK AO2 PK WND 30028/0549 SLP054 P0000 60001 T10891139 11011 21089 58010

More Conditions Fewer Conditions

10-Day Weather Forecast

Almanac

Astronomy

Jan. 31, 2015 Rise Set
Actual Time
Civil Twilight
Nautical Twilight
Astronomical Twilight
Moon
Length of Visible Light
Length of Day
Tomorrow will be .
, % of the Moon is Illuminated

Today's Extremes

State Highs State Lows

Community

WunderPhotos

Upload Photos

1,792,005 photos uploaded!

WunderBlogs® & News

Nearby

Air Quality

  Air Quality AQ Index Pollutant
Not available.

Snow Depth

Station Depth Elevation

Earthquake Activity

City Distance Mag. Time & Date
Minimum magnitude displayed is 2.5.

Coastal Water Temperatures

Place Temperature

Nearby Weather Stations